sensor_id;sensor_type;location;lat;lon;timestamp;P1;durP1;ratioP1;P2;durP2;ratioP2
58360;SDS011;44164;44.954;10.068;2023-05-07T00:00:53;4.20;;;2.92;;
58360;SDS011;44164;44.954;10.068;2023-05-07T00:03:20;3.92;;;2.90;;
58360;SDS011;44164;44.954;10.068;2023-05-07T00:05:47;3.88;;;2.90;;
58360;SDS011;44164;44.954;10.068;2023-05-07T00:08:13;3.97;;;2.53;;
58360;SDS011;44164;44.954;10.068;2023-05-07T00:10:39;3.45;;;2.45;;
58360;SDS011;44164;44.954;10.068;2023-05-07T00:13:06;3.70;;;2.70;;
58360;SDS011;44164;44.954;10.068;2023-05-07T00:15:32;3.40;;;2.67;;
58360;SDS011;44164;44.954;10.068;2023-05-07T00:17:58;3.83;;;2.78;;
58360;SDS011;44164;44.954;10.068;2023-05-07T00:20:25;3.53;;;2.97;;
58360;SDS011;44164;44.954;10.068;2023-05-07T00:22:51;4.15;;;2.65;;
58360;SDS011;44164;44.954;10.068;2023-05-07T00:25:17;2.90;;;2.60;;
58360;SDS011;44164;44.954;10.068;2023-05-07T00:27:45;3.95;;;2.92;;
58360;SDS011;44164;44.954;10.068;2023-05-07T00:30:11;4.80;;;3.08;;
58360;SDS011;44164;44.954;10.068;2023-05-07T00:32:37;3.50;;;2.72;;
58360;SDS011;44164;44.954;10.068;2023-05-07T00:35:04;3.50;;;2.80;;
58360;SDS011;44164;44.954;10.068;2023-05-07T00:37:31;6.80;;;3.30;;
58360;SDS011;44164;44.954;10.068;2023-05-07T00:39:57;3.15;;;2.60;;
58360;SDS011;44164;44.954;10.068;2023-05-07T00:42:23;2.80;;;2.42;;
58360;SDS011;44164;44.954;10.068;2023-05-07T00:44:49;6.10;;;2.65;;
58360;SDS011;44164;44.954;10.068;2023-05-07T00:47:16;3.17;;;2.30;;
58360;SDS011;44164;44.954;10.068;2023-05-07T00:49:43;2.92;;;2.42;;
58360;SDS011;44164;44.954;10.068;2023-05-07T00:52:11;4.32;;;2.83;;
58360;SDS011;44164;44.954;10.068;2023-05-07T00:54:39;4.05;;;2.88;;
58360;SDS011;44164;44.954;10.068;2023-05-07T00:57:06;4.15;;;2.72;;
58360;SDS011;44164;44.954;10.068;2023-05-07T00:59:32;3.35;;;2.75;;
58360;SDS011;44164;44.954;10.068;2023-05-07T01:01:59;3.85;;;2.60;;
58360;SDS011;44164;44.954;10.068;2023-05-07T01:04:25;7.53;;;3.10;;
58360;SDS011;44164;44.954;10.068;2023-05-07T01:06:52;2.70;;;2.22;;
58360;SDS011;44164;44.954;10.068;2023-05-07T01:09:19;4.07;;;3.05;;
58360;SDS011;44164;44.954;10.068;2023-05-07T01:11:47;5.40;;;2.97;;
58360;SDS011;44164;44.954;10.068;2023-05-07T01:14:13;5.78;;;2.70;;
58360;SDS011;44164;44.954;10.068;2023-05-07T01:16:39;4.72;;;2.83;;
58360;SDS011;44164;44.954;10.068;2023-05-07T01:21:34;3.45;;;2.25;;
58360;SDS011;44164;44.954;10.068;2023-05-07T01:24:04;2.70;;;2.30;;
58360;SDS011;44164;44.954;10.068;2023-05-07T01:28:58;2.92;;;2.25;;
58360;SDS011;44164;44.954;10.068;2023-05-07T01:31:24;3.75;;;2.67;;
58360;SDS011;44164;44.954;10.068;2023-05-07T01:33:50;3.60;;;2.50;;
58360;SDS011;44164;44.954;10.068;2023-05-07T01:36:17;3.33;;;2.80;;
58360;SDS011;44164;44.954;10.068;2023-05-07T01:38:44;2.90;;;2.45;;
58360;SDS011;44164;44.954;10.068;2023-05-07T01:41:11;3.38;;;2.72;;
58360;SDS011;44164;44.954;10.068;2023-05-07T01:43:39;3.53;;;2.47;;
58360;SDS011;44164;44.954;10.068;2023-05-07T01:48:33;3.78;;;2.75;;
58360;SDS011;44164;44.954;10.068;2023-05-07T01:51:00;3.33;;;2.13;;
58360;SDS011;44164;44.954;10.068;2023-05-07T01:53:27;3.58;;;2.67;;
58360;SDS011;44164;44.954;10.068;2023-05-07T01:55:53;3.53;;;2.60;;
58360;SDS011;44164;44.954;10.068;2023-05-07T01:58:21;3.00;;;2.70;;
58360;SDS011;44164;44.954;10.068;2023-05-07T02:00:47;2.88;;;2.28;;
58360;SDS011;44164;44.954;10.068;2023-05-07T02:03:13;4.47;;;2.42;;
58360;SDS011;44164;44.954;10.068;2023-05-07T02:05:51;3.08;;;2.38;;
58360;SDS011;44164;44.954;10.068;2023-05-07T02:08:33;3.85;;;2.35;;
58360;SDS011;44164;44.954;10.068;2023-05-07T02:10:59;4.03;;;2.88;;
58360;SDS011;44164;44.954;10.068;2023-05-07T02:13:28;3.72;;;2.70;;
58360;SDS011;44164;44.954;10.068;2023-05-07T02:15:55;3.95;;;3.00;;
58360;SDS011;44164;44.954;10.068;2023-05-07T02:20:49;3.65;;;2.63;;
58360;SDS011;44164;44.954;10.068;2023-05-07T02:23:15;3.40;;;2.50;;
58360;SDS011;44164;44.954;10.068;2023-05-07T02:25:41;2.95;;;2.22;;
58360;SDS011;44164;44.954;10.068;2023-05-07T02:28:07;3.42;;;2.40;;
58360;SDS011;44164;44.954;10.068;2023-05-07T02:33:11;4.03;;;2.70;;
58360;SDS011;44164;44.954;10.068;2023-05-07T02:35:40;5.00;;;2.63;;
58360;SDS011;44164;44.954;10.068;2023-05-07T02:38:06;3.40;;;2.70;;
58360;SDS011;44164;44.954;10.068;2023-05-07T02:40:34;4.68;;;2.83;;
58360;SDS011;44164;44.954;10.068;2023-05-07T02:43:04;4.03;;;3.15;;
58360;SDS011;44164;44.954;10.068;2023-05-07T02:45:32;3.73;;;2.80;;
58360;SDS011;44164;44.954;10.068;2023-05-07T02:50:25;3.58;;;2.45;;
58360;SDS011;44164;44.954;10.068;2023-05-07T02:52:53;4.43;;;2.63;;
58360;SDS011;44164;44.954;10.068;2023-05-07T02:55:19;3.17;;;2.35;;
58360;SDS011;44164;44.954;10.068;2023-05-07T02:57:45;2.78;;;2.35;;
58360;SDS011;44164;44.954;10.068;2023-05-07T03:00:12;2.92;;;2.30;;
58360;SDS011;44164;44.954;10.068;2023-05-07T03:02:49;2.88;;;2.42;;
58360;SDS011;44164;44.954;10.068;2023-05-07T03:05:16;3.85;;;2.85;;
58360;SDS011;44164;44.954;10.068;2023-05-07T03:07:42;3.50;;;2.53;;
58360;SDS011;44164;44.954;10.068;2023-05-07T03:10:11;4.60;;;2.85;;
58360;SDS011;44164;44.954;10.068;2023-05-07T03:12:37;3.03;;;2.38;;
58360;SDS011;44164;44.954;10.068;2023-05-07T03:15:04;3.90;;;2.28;;
58360;SDS011;44164;44.954;10.068;2023-05-07T03:17:30;3.55;;;2.78;;
58360;SDS011;44164;44.954;10.068;2023-05-07T03:19:56;3.05;;;2.55;;
58360;SDS011;44164;44.954;10.068;2023-05-07T03:22:22;3.22;;;2.25;;
58360;SDS011;44164;44.954;10.068;2023-05-07T03:24:48;2.17;;;1.77;;
58360;SDS011;44164;44.954;10.068;2023-05-07T03:27:15;3.03;;;2.60;;
58360;SDS011;44164;44.954;10.068;2023-05-07T03:29:41;3.35;;;2.70;;
58360;SDS011;44164;44.954;10.068;2023-05-07T03:32:07;4.40;;;2.83;;
58360;SDS011;44164;44.954;10.068;2023-05-07T03:34:34;3.95;;;2.40;;
58360;SDS011;44164;44.954;10.068;2023-05-07T03:37:00;3.75;;;2.80;;
58360;SDS011;44164;44.954;10.068;2023-05-07T03:39:26;5.63;;;2.83;;
58360;SDS011;44164;44.954;10.068;2023-05-07T03:41:52;2.90;;;2.47;;
58360;SDS011;44164;44.954;10.068;2023-05-07T03:44:18;2.75;;;2.15;;
58360;SDS011;44164;44.954;10.068;2023-05-07T03:46:46;2.58;;;2.30;;
58360;SDS011;44164;44.954;10.068;2023-05-07T03:49:12;4.22;;;2.33;;
58360;SDS011;44164;44.954;10.068;2023-05-07T03:51:38;2.95;;;2.38;;
58360;SDS011;44164;44.954;10.068;2023-05-07T03:56:33;4.45;;;2.90;;
58360;SDS011;44164;44.954;10.068;2023-05-07T03:59:00;2.95;;;2.50;;
58360;SDS011;44164;44.954;10.068;2023-05-07T04:01:26;2.90;;;2.38;;
58360;SDS011;44164;44.954;10.068;2023-05-07T04:03:53;3.42;;;2.38;;
58360;SDS011;44164;44.954;10.068;2023-05-07T04:06:19;3.17;;;2.50;;
58360;SDS011;44164;44.954;10.068;2023-05-07T04:08:47;2.83;;;2.20;;
58360;SDS011;44164;44.954;10.068;2023-05-07T04:11:13;3.05;;;2.10;;
58360;SDS011;44164;44.954;10.068;2023-05-07T04:13:40;4.07;;;2.08;;
58360;SDS011;44164;44.954;10.068;2023-05-07T04:16:08;2.95;;;2.13;;
58360;SDS011;44164;44.954;10.068;2023-05-07T04:18:35;2.58;;;2.15;;
58360;SDS011;44164;44.954;10.068;2023-05-07T04:21:02;2.83;;;2.00;;
58360;SDS011;44164;44.954;10.068;2023-05-07T04:23:28;3.97;;;2.38;;
58360;SDS011;44164;44.954;10.068;2023-05-07T04:25:56;3.47;;;2.35;;
58360;SDS011;44164;44.954;10.068;2023-05-07T04:28:36;2.72;;;2.35;;
58360;SDS011;44164;44.954;10.068;2023-05-07T04:31:02;3.65;;;2.30;;
58360;SDS011;44164;44.954;10.068;2023-05-07T04:33:31;2.72;;;2.33;;
58360;SDS011;44164;44.954;10.068;2023-05-07T04:35:58;2.38;;;1.92;;
58360;SDS011;44164;44.954;10.068;2023-05-07T04:38:29;2.25;;;2.00;;
58360;SDS011;44164;44.954;10.068;2023-05-07T04:43:26;4.50;;;2.35;;
58360;SDS011;44164;44.954;10.068;2023-05-07T04:45:53;2.10;;;1.88;;
58360;SDS011;44164;44.954;10.068;2023-05-07T04:50:49;3.85;;;2.20;;
58360;SDS011;44164;44.954;10.068;2023-05-07T04:53:17;2.50;;;2.20;;
58360;SDS011;44164;44.954;10.068;2023-05-07T04:55:43;3.28;;;2.55;;
58360;SDS011;44164;44.954;10.068;2023-05-07T04:58:11;2.80;;;2.05;;
58360;SDS011;44164;44.954;10.068;2023-05-07T05:00:38;2.75;;;2.10;;
58360;SDS011;44164;44.954;10.068;2023-05-07T05:03:06;3.25;;;2.40;;
58360;SDS011;44164;44.954;10.068;2023-05-07T05:05:33;2.33;;;1.70;;
58360;SDS011;44164;44.954;10.068;2023-05-07T05:08:00;2.75;;;2.13;;
58360;SDS011;44164;44.954;10.068;2023-05-07T05:10:26;2.97;;;2.28;;
58360;SDS011;44164;44.954;10.068;2023-05-07T05:12:53;3.00;;;1.95;;
58360;SDS011;44164;44.954;10.068;2023-05-07T05:15:21;4.30;;;2.45;;
58360;SDS011;44164;44.954;10.068;2023-05-07T05:17:47;3.42;;;2.00;;
58360;SDS011;44164;44.954;10.068;2023-05-07T05:20:14;3.08;;;2.13;;
58360;SDS011;44164;44.954;10.068;2023-05-07T05:22:41;2.97;;;2.20;;
58360;SDS011;44164;44.954;10.068;2023-05-07T05:25:08;2.67;;;2.25;;
58360;SDS011;44164;44.954;10.068;2023-05-07T05:27:34;2.78;;;2.25;;
58360;SDS011;44164;44.954;10.068;2023-05-07T05:30:01;4.22;;;1.95;;
58360;SDS011;44164;44.954;10.068;2023-05-07T05:32:30;2.55;;;1.75;;
58360;SDS011;44164;44.954;10.068;2023-05-07T05:34:56;4.22;;;2.38;;
58360;SDS011;44164;44.954;10.068;2023-05-07T05:37:22;3.03;;;1.90;;
58360;SDS011;44164;44.954;10.068;2023-05-07T05:39:50;5.25;;;2.10;;
58360;SDS011;44164;44.954;10.068;2023-05-07T05:42:16;2.83;;;2.03;;
58360;SDS011;44164;44.954;10.068;2023-05-07T05:44:42;2.95;;;1.83;;
58360;SDS011;44164;44.954;10.068;2023-05-07T05:47:08;2.95;;;2.00;;
58360;SDS011;44164;44.954;10.068;2023-05-07T05:49:34;2.80;;;2.05;;
58360;SDS011;44164;44.954;10.068;2023-05-07T05:52:02;2.37;;;1.87;;
58360;SDS011;44164;44.954;10.068;2023-05-07T05:54:28;3.20;;;2.25;;
58360;SDS011;44164;44.954;10.068;2023-05-07T05:56:54;2.35;;;1.95;;
58360;SDS011;44164;44.954;10.068;2023-05-07T05:59:21;3.15;;;2.20;;
58360;SDS011;44164;44.954;10.068;2023-05-07T06:01:47;2.78;;;2.20;;
58360;SDS011;44164;44.954;10.068;2023-05-07T06:04:13;2.85;;;2.10;;
58360;SDS011;44164;44.954;10.068;2023-05-07T06:06:40;2.30;;;2.00;;
58360;SDS011;44164;44.954;10.068;2023-05-07T06:09:06;2.40;;;1.80;;
58360;SDS011;44164;44.954;10.068;2023-05-07T06:11:39;2.92;;;2.05;;
58360;SDS011;44164;44.954;10.068;2023-05-07T06:14:07;2.47;;;1.90;;
58360;SDS011;44164;44.954;10.068;2023-05-07T06:16:35;2.50;;;2.00;;
58360;SDS011;44164;44.954;10.068;2023-05-07T06:19:05;3.03;;;2.40;;
58360;SDS011;44164;44.954;10.068;2023-05-07T06:21:31;4.22;;;1.95;;
58360;SDS011;44164;44.954;10.068;2023-05-07T06:23:57;2.65;;;2.03;;
58360;SDS011;44164;44.954;10.068;2023-05-07T06:26:23;2.85;;;1.92;;
58360;SDS011;44164;44.954;10.068;2023-05-07T06:28:49;3.70;;;2.17;;
58360;SDS011;44164;44.954;10.068;2023-05-07T06:31:18;2.03;;;1.70;;
58360;SDS011;44164;44.954;10.068;2023-05-07T06:34:01;2.58;;;2.00;;
58360;SDS011;44164;44.954;10.068;2023-05-07T06:36:33;2.83;;;2.03;;
58360;SDS011;44164;44.954;10.068;2023-05-07T06:39:04;2.28;;;2.05;;
58360;SDS011;44164;44.954;10.068;2023-05-07T06:41:30;2.63;;;2.05;;
58360;SDS011;44164;44.954;10.068;2023-05-07T06:44:01;2.83;;;1.95;;
58360;SDS011;44164;44.954;10.068;2023-05-07T06:46:42;2.30;;;1.60;;
58360;SDS011;44164;44.954;10.068;2023-05-07T06:49:09;4.15;;;1.85;;
58360;SDS011;44164;44.954;10.068;2023-05-07T06:51:36;2.20;;;1.65;;
58360;SDS011;44164;44.954;10.068;2023-05-07T06:54:03;2.38;;;1.75;;
58360;SDS011;44164;44.954;10.068;2023-05-07T06:58:59;2.33;;;1.75;;
58360;SDS011;44164;44.954;10.068;2023-05-07T07:01:26;2.55;;;1.90;;
58360;SDS011;44164;44.954;10.068;2023-05-07T07:03:52;2.85;;;2.05;;
58360;SDS011;44164;44.954;10.068;2023-05-07T07:06:20;2.13;;;1.70;;
58360;SDS011;44164;44.954;10.068;2023-05-07T07:08:46;2.63;;;1.90;;
58360;SDS011;44164;44.954;10.068;2023-05-07T07:11:14;4.75;;;1.90;;
58360;SDS011;44164;44.954;10.068;2023-05-07T07:13:41;2.75;;;2.08;;
58360;SDS011;44164;44.954;10.068;2023-05-07T07:16:09;2.50;;;2.03;;
58360;SDS011;44164;44.954;10.068;2023-05-07T07:18:35;2.33;;;1.85;;
58360;SDS011;44164;44.954;10.068;2023-05-07T07:21:01;2.08;;;1.77;;
58360;SDS011;44164;44.954;10.068;2023-05-07T07:23:28;3.35;;;2.10;;
58360;SDS011;44164;44.954;10.068;2023-05-07T07:25:54;2.67;;;1.95;;
58360;SDS011;44164;44.954;10.068;2023-05-07T07:28:20;2.72;;;1.88;;
58360;SDS011;44164;44.954;10.068;2023-05-07T07:30:47;3.05;;;2.10;;
58360;SDS011;44164;44.954;10.068;2023-05-07T07:33:15;2.80;;;2.20;;
58360;SDS011;44164;44.954;10.068;2023-05-07T07:35:42;2.55;;;2.00;;
58360;SDS011;44164;44.954;10.068;2023-05-07T07:38:08;2.90;;;1.70;;
58360;SDS011;44164;44.954;10.068;2023-05-07T07:40:34;3.25;;;1.85;;
58360;SDS011;44164;44.954;10.068;2023-05-07T07:43:01;2.30;;;1.90;;
58360;SDS011;44164;44.954;10.068;2023-05-07T07:45:28;4.22;;;1.80;;
58360;SDS011;44164;44.954;10.068;2023-05-07T07:47:54;3.28;;;2.13;;
58360;SDS011;44164;44.954;10.068;2023-05-07T07:50:21;4.13;;;1.83;;
58360;SDS011;44164;44.954;10.068;2023-05-07T07:52:48;4.90;;;1.83;;
58360;SDS011;44164;44.954;10.068;2023-05-07T07:56:55;2.63;;;2.08;;
58360;SDS011;44164;44.954;10.068;2023-05-07T07:59:22;2.67;;;1.98;;
58360;SDS011;44164;44.954;10.068;2023-05-07T08:01:49;3.25;;;1.80;;
58360;SDS011;44164;44.954;10.068;2023-05-07T08:04:18;3.75;;;2.45;;
58360;SDS011;44164;44.954;10.068;2023-05-07T08:06:44;2.90;;;2.55;;
58360;SDS011;44164;44.954;10.068;2023-05-07T08:09:11;2.55;;;2.00;;
58360;SDS011;44164;44.954;10.068;2023-05-07T08:11:39;2.70;;;2.00;;
58360;SDS011;44164;44.954;10.068;2023-05-07T08:14:06;3.60;;;2.25;;
58360;SDS011;44164;44.954;10.068;2023-05-07T08:16:33;2.70;;;2.05;;
58360;SDS011;44164;44.954;10.068;2023-05-07T08:19:00;3.10;;;2.30;;
58360;SDS011;44164;44.954;10.068;2023-05-07T08:21:26;2.60;;;2.13;;
58360;SDS011;44164;44.954;10.068;2023-05-07T08:23:54;3.08;;;2.40;;
58360;SDS011;44164;44.954;10.068;2023-05-07T08:26:20;2.40;;;2.05;;
58360;SDS011;44164;44.954;10.068;2023-05-07T08:28:46;3.00;;;1.73;;
58360;SDS011;44164;44.954;10.068;2023-05-07T08:31:13;3.75;;;2.25;;
58360;SDS011;44164;44.954;10.068;2023-05-07T08:33:43;2.53;;;2.05;;
58360;SDS011;44164;44.954;10.068;2023-05-07T08:36:09;2.67;;;2.30;;
58360;SDS011;44164;44.954;10.068;2023-05-07T08:38:35;5.18;;;2.60;;
58360;SDS011;44164;44.954;10.068;2023-05-07T08:41:01;3.08;;;2.30;;
58360;SDS011;44164;44.954;10.068;2023-05-07T08:45:56;4.53;;;2.20;;
58360;SDS011;44164;44.954;10.068;2023-05-07T08:48:27;3.00;;;2.28;;
58360;SDS011;44164;44.954;10.068;2023-05-07T08:53:31;2.88;;;2.40;;
58360;SDS011;44164;44.954;10.068;2023-05-07T08:55:59;2.70;;;2.30;;
58360;SDS011;44164;44.954;10.068;2023-05-07T08:58:25;4.53;;;2.28;;
58360;SDS011;44164;44.954;10.068;2023-05-07T09:00:51;3.45;;;2.45;;
58360;SDS011;44164;44.954;10.068;2023-05-07T09:03:19;2.67;;;2.15;;
58360;SDS011;44164;44.954;10.068;2023-05-07T09:05:49;3.00;;;2.20;;
58360;SDS011;44164;44.954;10.068;2023-05-07T09:08:17;4.25;;;2.38;;
58360;SDS011;44164;44.954;10.068;2023-05-07T09:10:46;3.75;;;2.40;;
58360;SDS011;44164;44.954;10.068;2023-05-07T09:13:14;3.22;;;2.17;;
58360;SDS011;44164;44.954;10.068;2023-05-07T09:15:41;2.63;;;2.20;;
58360;SDS011;44164;44.954;10.068;2023-05-07T09:18:08;2.85;;;2.28;;
58360;SDS011;44164;44.954;10.068;2023-05-07T09:20:37;4.82;;;2.38;;
58360;SDS011;44164;44.954;10.068;2023-05-07T09:23:04;4.25;;;2.30;;
58360;SDS011;44164;44.954;10.068;2023-05-07T09:25:31;3.67;;;2.30;;
58360;SDS011;44164;44.954;10.068;2023-05-07T09:28:01;3.20;;;2.33;;
58360;SDS011;44164;44.954;10.068;2023-05-07T09:30:28;3.53;;;2.13;;
58360;SDS011;44164;44.954;10.068;2023-05-07T09:32:58;6.18;;;2.97;;
58360;SDS011;44164;44.954;10.068;2023-05-07T09:37:59;3.25;;;2.28;;
58360;SDS011;44164;44.954;10.068;2023-05-07T09:40:27;2.72;;;2.20;;
58360;SDS011;44164;44.954;10.068;2023-05-07T09:43:08;3.05;;;2.28;;
58360;SDS011;44164;44.954;10.068;2023-05-07T09:45:38;3.45;;;2.85;;
58360;SDS011;44164;44.954;10.068;2023-05-07T09:48:05;2.95;;;2.22;;
58360;SDS011;44164;44.954;10.068;2023-05-07T09:50:36;3.42;;;2.17;;
58360;SDS011;44164;44.954;10.068;2023-05-07T09:53:03;2.65;;;1.98;;
58360;SDS011;44164;44.954;10.068;2023-05-07T09:55:30;5.00;;;2.10;;
58360;SDS011;44164;44.954;10.068;2023-05-07T09:57:57;3.85;;;2.50;;
58360;SDS011;44164;44.954;10.068;2023-05-07T10:00:26;2.83;;;2.40;;
58360;SDS011;44164;44.954;10.068;2023-05-07T10:03:00;2.50;;;2.00;;
58360;SDS011;44164;44.954;10.068;2023-05-07T10:05:36;3.33;;;2.25;;
58360;SDS011;44164;44.954;10.068;2023-05-07T10:08:03;4.35;;;2.42;;
58360;SDS011;44164;44.954;10.068;2023-05-07T10:10:29;3.10;;;2.75;;
58360;SDS011;44164;44.954;10.068;2023-05-07T10:12:58;2.72;;;2.28;;
58360;SDS011;44164;44.954;10.068;2023-05-07T10:15:31;4.07;;;2.35;;
58360;SDS011;44164;44.954;10.068;2023-05-07T10:17:59;2.72;;;1.85;;
58360;SDS011;44164;44.954;10.068;2023-05-07T10:20:26;3.13;;;2.13;;
58360;SDS011;44164;44.954;10.068;2023-05-07T10:25:28;3.33;;;2.10;;
58360;SDS011;44164;44.954;10.068;2023-05-07T10:28:00;2.55;;;2.22;;
58360;SDS011;44164;44.954;10.068;2023-05-07T10:32:57;2.30;;;1.90;;
58360;SDS011;44164;44.954;10.068;2023-05-07T10:35:40;2.45;;;1.98;;
58360;SDS011;44164;44.954;10.068;2023-05-07T10:38:08;3.15;;;2.03;;
58360;SDS011;44164;44.954;10.068;2023-05-07T10:40:37;2.80;;;2.08;;
58360;SDS011;44164;44.954;10.068;2023-05-07T10:43:05;3.17;;;2.22;;
58360;SDS011;44164;44.954;10.068;2023-05-07T10:45:38;2.58;;;2.10;;
58360;SDS011;44164;44.954;10.068;2023-05-07T10:50:36;2.85;;;2.13;;
58360;SDS011;44164;44.954;10.068;2023-05-07T10:55:48;3.10;;;2.22;;
58360;SDS011;44164;44.954;10.068;2023-05-07T10:58:26;5.85;;;2.58;;
58360;SDS011;44164;44.954;10.068;2023-05-07T11:01:01;4.75;;;2.20;;
58360;SDS011;44164;44.954;10.068;2023-05-07T11:03:36;2.30;;;1.95;;
58360;SDS011;44164;44.954;10.068;2023-05-07T11:06:38;2.50;;;2.00;;
58360;SDS011;44164;44.954;10.068;2023-05-07T11:09:09;2.45;;;2.20;;
58360;SDS011;44164;44.954;10.068;2023-05-07T11:11:47;3.42;;;2.35;;
58360;SDS011;44164;44.954;10.068;2023-05-07T11:17:15;2.72;;;2.15;;
58360;SDS011;44164;44.954;10.068;2023-05-07T11:19:50;2.45;;;1.95;;
58360;SDS011;44164;44.954;10.068;2023-05-07T11:25:21;3.78;;;2.30;;
58360;SDS011;44164;44.954;10.068;2023-05-07T11:28:03;3.47;;;2.20;;
58360;SDS011;44164;44.954;10.068;2023-05-07T11:30:31;3.00;;;1.98;;
58360;SDS011;44164;44.954;10.068;2023-05-07T11:32:57;2.58;;;2.03;;
58360;SDS011;44164;44.954;10.068;2023-05-07T11:35:24;3.92;;;2.05;;
58360;SDS011;44164;44.954;10.068;2023-05-07T11:37:57;2.90;;;2.20;;
58360;SDS011;44164;44.954;10.068;2023-05-07T11:40:24;3.65;;;2.00;;
58360;SDS011;44164;44.954;10.068;2023-05-07T11:42:50;2.78;;;1.80;;
58360;SDS011;44164;44.954;10.068;2023-05-07T11:45:22;2.80;;;2.03;;
58360;SDS011;44164;44.954;10.068;2023-05-07T11:47:52;2.20;;;1.92;;
58360;SDS011;44164;44.954;10.068;2023-05-07T11:50:18;2.80;;;1.95;;
58360;SDS011;44164;44.954;10.068;2023-05-07T11:52:50;2.72;;;1.90;;
58360;SDS011;44164;44.954;10.068;2023-05-07T11:55:18;2.58;;;2.20;;
58360;SDS011;44164;44.954;10.068;2023-05-07T11:57:44;2.20;;;1.60;;
58360;SDS011;44164;44.954;10.068;2023-05-07T12:00:11;3.13;;;2.08;;
58360;SDS011;44164;44.954;10.068;2023-05-07T12:02:40;2.70;;;2.20;;
58360;SDS011;44164;44.954;10.068;2023-05-07T12:05:07;2.40;;;2.07;;
58360;SDS011;44164;44.954;10.068;2023-05-07T12:07:34;2.80;;;1.73;;
58360;SDS011;44164;44.954;10.068;2023-05-07T12:10:03;2.42;;;1.92;;
58360;SDS011;44164;44.954;10.068;2023-05-07T12:12:39;4.78;;;2.15;;
58360;SDS011;44164;44.954;10.068;2023-05-07T12:15:07;2.53;;;1.80;;
58360;SDS011;44164;44.954;10.068;2023-05-07T12:17:34;3.45;;;1.70;;
58360;SDS011;44164;44.954;10.068;2023-05-07T12:20:00;2.50;;;2.00;;
58360;SDS011;44164;44.954;10.068;2023-05-07T12:22:26;2.50;;;1.77;;
58360;SDS011;44164;44.954;10.068;2023-05-07T12:24:59;2.75;;;2.03;;
58360;SDS011;44164;44.954;10.068;2023-05-07T12:27:25;2.72;;;2.03;;
58360;SDS011;44164;44.954;10.068;2023-05-07T12:29:52;2.83;;;2.00;;
58360;SDS011;44164;44.954;10.068;2023-05-07T12:32:18;2.78;;;1.95;;
58360;SDS011;44164;44.954;10.068;2023-05-07T12:37:12;2.33;;;2.00;;
58360;SDS011;44164;44.954;10.068;2023-05-07T12:39:44;2.65;;;2.35;;
58360;SDS011;44164;44.954;10.068;2023-05-07T12:42:16;2.72;;;2.03;;
58360;SDS011;44164;44.954;10.068;2023-05-07T12:44:45;2.10;;;1.70;;
58360;SDS011;44164;44.954;10.068;2023-05-07T12:47:12;3.10;;;1.90;;
58360;SDS011;44164;44.954;10.068;2023-05-07T12:49:41;2.50;;;2.00;;
58360;SDS011;44164;44.954;10.068;2023-05-07T12:52:07;2.00;;;1.70;;
58360;SDS011;44164;44.954;10.068;2023-05-07T12:54:34;2.92;;;1.98;;
58360;SDS011;44164;44.954;10.068;2023-05-07T12:59:39;2.20;;;1.88;;
58360;SDS011;44164;44.954;10.068;2023-05-07T13:02:06;2.33;;;1.97;;
58360;SDS011;44164;44.954;10.068;2023-05-07T13:04:34;2.35;;;1.92;;
58360;SDS011;44164;44.954;10.068;2023-05-07T13:07:01;2.47;;;1.63;;
58360;SDS011;44164;44.954;10.068;2023-05-07T13:09:27;3.00;;;1.90;;
58360;SDS011;44164;44.954;10.068;2023-05-07T13:11:54;2.10;;;1.80;;
58360;SDS011;44164;44.954;10.068;2023-05-07T13:14:21;2.65;;;2.13;;
58360;SDS011;44164;44.954;10.068;2023-05-07T13:16:47;3.15;;;2.25;;
58360;SDS011;44164;44.954;10.068;2023-05-07T13:19:13;2.30;;;1.90;;
58360;SDS011;44164;44.954;10.068;2023-05-07T13:21:39;2.45;;;1.80;;
58360;SDS011;44164;44.954;10.068;2023-05-07T13:24:06;3.13;;;1.80;;
58360;SDS011;44164;44.954;10.068;2023-05-07T13:26:32;2.47;;;1.98;;
58360;SDS011;44164;44.954;10.068;2023-05-07T13:28:58;2.50;;;1.70;;
58360;SDS011;44164;44.954;10.068;2023-05-07T13:31:24;3.53;;;1.88;;
58360;SDS011;44164;44.954;10.068;2023-05-07T13:33:50;2.38;;;1.88;;
58360;SDS011;44164;44.954;10.068;2023-05-07T13:36:18;1.73;;;1.33;;
58360;SDS011;44164;44.954;10.068;2023-05-07T13:38:44;2.22;;;1.98;;
58360;SDS011;44164;44.954;10.068;2023-05-07T13:41:10;2.28;;;1.50;;
58360;SDS011;44164;44.954;10.068;2023-05-07T13:46:04;2.08;;;1.65;;
58360;SDS011;44164;44.954;10.068;2023-05-07T13:48:30;2.88;;;1.80;;
58360;SDS011;44164;44.954;10.068;2023-05-07T13:50:56;2.70;;;2.08;;
58360;SDS011;44164;44.954;10.068;2023-05-07T13:53:22;4.38;;;2.20;;
58360;SDS011;44164;44.954;10.068;2023-05-07T13:55:48;2.25;;;1.70;;
58360;SDS011;44164;44.954;10.068;2023-05-07T13:58:15;2.60;;;2.15;;
58360;SDS011;44164;44.954;10.068;2023-05-07T14:00:41;2.55;;;1.77;;
58360;SDS011;44164;44.954;10.068;2023-05-07T14:03:07;2.70;;;2.05;;
58360;SDS011;44164;44.954;10.068;2023-05-07T14:05:33;2.20;;;1.73;;
58360;SDS011;44164;44.954;10.068;2023-05-07T14:07:59;1.88;;;1.60;;
58360;SDS011;44164;44.954;10.068;2023-05-07T14:10:25;2.25;;;1.85;;
58360;SDS011;44164;44.954;10.068;2023-05-07T14:12:51;2.00;;;1.70;;
58360;SDS011;44164;44.954;10.068;2023-05-07T14:15:18;2.03;;;1.50;;
58360;SDS011;44164;44.954;10.068;2023-05-07T14:17:44;2.05;;;1.55;;
58360;SDS011;44164;44.954;10.068;2023-05-07T14:20:11;2.25;;;1.60;;
58360;SDS011;44164;44.954;10.068;2023-05-07T14:22:37;2.03;;;1.65;;
58360;SDS011;44164;44.954;10.068;2023-05-07T14:25:04;2.00;;;1.60;;
58360;SDS011;44164;44.954;10.068;2023-05-07T14:27:30;2.00;;;1.60;;
58360;SDS011;44164;44.954;10.068;2023-05-07T14:29:56;2.20;;;1.58;;
58360;SDS011;44164;44.954;10.068;2023-05-07T14:32:22;2.20;;;1.73;;
58360;SDS011;44164;44.954;10.068;2023-05-07T14:34:48;2.30;;;1.70;;
58360;SDS011;44164;44.954;10.068;2023-05-07T14:37:15;2.00;;;1.58;;
58360;SDS011;44164;44.954;10.068;2023-05-07T14:39:41;1.98;;;1.55;;
58360;SDS011;44164;44.954;10.068;2023-05-07T14:42:07;2.65;;;1.60;;
58360;SDS011;44164;44.954;10.068;2023-05-07T14:44:37;3.00;;;1.90;;
58360;SDS011;44164;44.954;10.068;2023-05-07T14:47:03;2.08;;;1.65;;
58360;SDS011;44164;44.954;10.068;2023-05-07T14:49:29;1.98;;;1.52;;
58360;SDS011;44164;44.954;10.068;2023-05-07T14:51:57;2.38;;;1.73;;
58360;SDS011;44164;44.954;10.068;2023-05-07T14:54:23;3.08;;;1.80;;
58360;SDS011;44164;44.954;10.068;2023-05-07T14:56:50;3.33;;;2.10;;
58360;SDS011;44164;44.954;10.068;2023-05-07T14:59:16;2.20;;;1.70;;
58360;SDS011;44164;44.954;10.068;2023-05-07T15:01:45;2.15;;;1.70;;
58360;SDS011;44164;44.954;10.068;2023-05-07T15:04:11;2.40;;;1.75;;
58360;SDS011;44164;44.954;10.068;2023-05-07T15:06:37;2.20;;;1.65;;
58360;SDS011;44164;44.954;10.068;2023-05-07T15:09:03;2.00;;;1.55;;
58360;SDS011;44164;44.954;10.068;2023-05-07T15:11:29;2.70;;;1.75;;
58360;SDS011;44164;44.954;10.068;2023-05-07T15:13:55;2.35;;;1.70;;
58360;SDS011;44164;44.954;10.068;2023-05-07T15:16:22;2.75;;;1.88;;
58360;SDS011;44164;44.954;10.068;2023-05-07T15:18:48;2.85;;;1.83;;
58360;SDS011;44164;44.954;10.068;2023-05-07T15:21:14;2.30;;;1.83;;
58360;SDS011;44164;44.954;10.068;2023-05-07T15:23:40;2.20;;;1.70;;
58360;SDS011;44164;44.954;10.068;2023-05-07T15:26:07;1.85;;;1.50;;
58360;SDS011;44164;44.954;10.068;2023-05-07T15:28:33;3.00;;;1.80;;
58360;SDS011;44164;44.954;10.068;2023-05-07T15:31:00;2.72;;;1.92;;
58360;SDS011;44164;44.954;10.068;2023-05-07T15:33:26;1.75;;;1.42;;